Gulf Breeze, Florida
Current Conditions -  °F | °C
As of 10:53 AM on Thursday 30 Oct 2014 (Local Time) from KPNS Reporting Station
Clear Clear  
Wind Chill: 67°   Ceiling: Unl
Heat Index: 67°   Visibility: 10mi
Dew Point: 43°   Wind: 14mph
Humidity: 42%   Direction: 20°NNE
Pressure: 30.08"   Gusts: NA
Location:  30.36°N, 87.17°W
Report Text: KPNS 301553Z 02012KT 10SM CLR 19/06 A3008 RMK AO2 SLP189 T01940061
Loading
Personal Weather Stations






























Interactive Weather Map
Tropical Storm Tracking
New forecast layout! Learn more

10-Day Weather Forecast

Advertisements
Track Severe Weather on mobile